TimeEST,TemperatureF,Dew PointF,Humidity,Sea Level PressureIn,VisibilityMPH,Wind Direction,Wind SpeedMPH,Gust SpeedMPH,PrecipitationIn,Events,Conditions,WindDirDegrees,DateUTC
12:53 AM,35.1,32.0,89,30.38,6.0,Calm,Calm,-,N/A,,Partly Cloudy,0,2012-11-11 05:53:00
1:53 AM,33.1,30.9,92,30.38,5.0,Calm,Calm,-,N/A,,Clear,0,2012-11-11 06:53:00
2:53 AM,33.1,30.0,89,30.38,5.0,Calm,Calm,-,N/A,,Clear,0,2012-11-11 07:53:00
3:53 AM,32.0,30.0,92,30.40,2.5,Calm,Calm,-,N/A,,Clear,0,2012-11-11 08:53:00
4:05 AM,32.0,30.2,93,30.38,2.0,Calm,Calm,-,N/A,,Clear,0,2012-11-11 09:05:00
4:12 AM,32.0,30.2,93,30.38,3.0,Calm,Calm,-,N/A,,Clear,0,2012-11-11 09:12:00
4:53 AM,33.1,30.0,89,30.41,5.0,Calm,Calm,-,N/A,,Clear,0,2012-11-11 09:53:00
5:53 AM,32.0,28.9,88,30.42,3.0,Calm,Calm,-,N/A,,Clear,0,2012-11-11 10:53:00
6:51 AM,30.2,28.4,93,30.42,2.0,Calm,Calm,-,N/A,,Clear,0,2012-11-11 11:51:00
6:53 AM,30.9,28.9,92,30.45,2.0,Calm,Calm,-,N/A,,Clear,0,2012-11-11 11:53:00
7:01 AM,30.2,28.4,93,30.42,1.8,Calm,Calm,-,N/A,,Clear,0,2012-11-11 12:01:00
7:07 AM,32.0,28.4,87,30.43,2.5,Calm,Calm,-,N/A,,Clear,0,2012-11-11 12:07:00
7:40 AM,33.8,30.2,87,30.44,3.0,Calm,Calm,-,N/A,,Clear,0,2012-11-11 12:40:00
7:53 AM,36.0,33.1,89,30.46,3.0,Calm,Calm,-,N/A,,Clear,0,2012-11-11 12:53:00
9:53 AM,51.1,43.0,74,30.48,7.0,Calm,Calm,-,N/A,,Clear,0,2012-11-11 14:53:00
10:53 AM,55.0,43.0,64,30.45,7.0,East,3.5,-,N/A,,Clear,90,2012-11-11 15:53:00
11:53 AM,59.0,44.1,58,30.43,10.0,East,3.5,-,N/A,,Clear,100,2012-11-11 16:53:00
1:53 PM,68.0,43.0,40,30.38,10.0,Calm,Calm,-,N/A,,Clear,0,2012-11-11 18:53:00
2:53 PM,68.0,37.0,32,30.38,10.0,Variable,5.8,-,N/A,,Clear,0,2012-11-11 19:53:00
3:53 PM,64.0,41.0,43,30.38,10.0,SSE,8.1,-,N/A,,Clear,150,2012-11-11 20:53:00
4:53 PM,59.0,41.0,51,30.40,10.0,SSE,6.9,-,N/A,,Clear,150,2012-11-11 21:53:00
5:53 PM,57.0,42.1,57,30.42,10.0,ESE,3.5,-,N/A,,Clear,120,2012-11-11 22:53:00
6:53 PM,52.0,41.0,66,30.43,10.0,Calm,Calm,-,N/A,,Clear,0,2012-11-11 23:53:00
7:53 PM,53.1,41.0,64,30.43,10.0,Calm,Calm,-,N/A,,Clear,0,2012-11-12 00:53:00
8:53 PM,55.0,42.1,62,30.42,10.0,SSE,5.8,-,N/A,,Clear,150,2012-11-12 01:53:00
9:53 PM,55.9,42.1,60,30.41,10.0,South,5.8,-,N/A,,Clear,170,2012-11-12 02:53:00
10:53 PM,53.1,42.1,66,30.43,10.0,Calm,Calm,-,N/A,,Clear,0,2012-11-12 03:53:00
11:53 PM,44.1,39.0,82,30.42,10.0,Calm,Calm,-,N/A,,Clear,0,2012-11-12 04:53:00